Terminal Aerodrome Forecast
Issued by NWS

Home | Current Version | Previous Version | Text Only | Print | Product List | Glossary On
Versions: 1 2 3 4 5 6 7 8 9 10 11 12 13
000
FTUS45 KTFX 282300
TAFHVR
TAF
KHVR 282335Z 2900/2924 29024G34KT P6SM -SHRA OVC050
     FM290200 29016KT P6SM OVC080
     FM290900 24010KT P6SM SCT080
     FM291400 24014KT P6SM BKN250
     FM292000 25018G25KT P6SM FEW090 BKN250=

USA.gov is the U.S. government's official web portal to all federal, state and local government web resources and services.